Time;durP1;ratioP1;P1;durP2;ratioP2;P2;SDS_P1;SDS_P2;PMS_P1;PMS_P2;Temp;Humidity;BMP_temperature;BMP_pressure;BME280_temperature;BME280_humidity;BME280_pressure;Samples;Min_cycle;Max_cycle;Signal;HPM_P1;HPM_P2
2022/09/29 07:34:44;;;;;;;13.30;10.47;;;;;;;15.84;56.31;98977.22;10022779;27;2238089;-78
2022/09/29 07:39:36;;;;;;;17.70;12.60;;;;;;;15.84;55.90;98972.56;10102203;28;66194;-81
2022/09/29 07:44:30;;;;;;;14.45;11.10;;;;;;;16.58;54.18;98988.16;10094854;28;66380;-83
2022/09/29 07:49:22;;;;;;;12.23;9.15;;;;;;;16.79;54.36;98994.63;10089717;28;66555;-79
2022/09/29 07:54:16;;;;;;;9.98;8.02;;;;;;;16.99;53.95;98988.50;10100195;28;66393;-80
2022/09/29 07:59:10;;;;;;;10.63;7.70;;;;;;;17.07;54.20;98992.34;10093592;28;66269;-81
2022/09/29 08:04:02;;;;;;;9.50;6.90;;;;;;;17.24;54.01;98992.34;10097831;28;65288;-78
2022/09/29 08:08:54;;;;;;;9.88;7.10;;;;;;;17.30;53.99;99001.19;10093215;28;66161;-78
2022/09/29 08:13:47;;;;;;;9.20;6.75;;;;;;;17.39;53.92;99007.47;10096292;28;66303;-79
2022/09/29 08:18:40;;;;;;;6.65;6.03;;;;;;;17.41;53.97;99016.94;10099769;28;65804;-80
2022/09/29 08:23:35;;;;;;;9.63;6.30;;;;;;;17.49;53.85;99009.06;10095798;28;66796;-80
2022/09/29 08:28:27;;;;;;;8.30;6.40;;;;;;;17.51;53.81;99028.69;10097759;28;65696;-70
2022/09/29 08:33:20;;;;;;;12.55;9.20;;;;;;;17.41;53.07;99035.34;10090884;28;66424;-69
2022/09/29 08:38:12;;;;;;;11.45;9.60;;;;;;;17.31;53.03;99038.41;10102443;28;66279;-71
2022/09/29 08:43:09;;;;;;;12.13;7.90;;;;;;;17.48;53.32;99038.41;10076831;28;66474;-70
2022/09/29 08:48:04;;;;;;;9.85;7.60;;;;;;;17.53;53.38;99034.66;10067146;28;67033;-70
2022/09/29 08:52:59;;;;;;;15.18;7.47;;;;;;;17.54;53.62;99039.81;10057758;28;66032;-70
2022/09/29 08:57:55;;;;;;;12.18;6.95;;;;;;;17.61;53.59;99039.31;10060220;28;66411;-70
2022/09/29 09:02:59;;;;;;;7.57;6.63;;;;;;;17.62;53.46;99041.78;10059121;28;66429;-69
2022/09/29 09:07:53;;;;;;;9.00;6.55;;;;;;;17.70;53.49;99042.88;10070008;28;66326;-70
2022/09/29 09:12:54;;;;;;;11.48;7.00;;;;;;;17.70;53.59;99049.16;10060886;28;65512;-71
2022/09/29 09:18:06;;;;;;;8.70;6.43;;;;;;;17.74;53.48;99046.56;10063252;28;65547;-70
2022/09/29 09:22:58;;;;;;;11.50;6.65;;;;;;;17.78;53.42;99055.75;10067713;28;65838;-71
2022/09/29 09:27:56;;;;;;;9.20;6.63;;;;;;;17.79;53.41;99058.16;10056182;28;66294;-71
2022/09/29 09:32:49;;;;;;;9.20;6.45;;;;;;;17.84;53.69;99051.72;10035874;28;66327;-70
2022/09/29 09:37:41;;;;;;;7.53;6.20;;;;;;;17.89;53.60;99050.72;10021462;28;66330;-71
2022/09/29 09:42:36;;;;;;;8.77;6.57;;;;;;;18.11;53.03;99050.47;10033045;28;66539;-69
2022/09/29 09:47:31;;;;;;;10.63;6.25;;;;;;;17.89;53.70;99051.50;10033280;28;65721;-70
2022/09/29 09:52:24;;;;;;;8.40;6.55;;;;;;;17.96;54.43;99048.25;10021537;28;66311;-77
2022/09/29 09:57:51;;;;;;;9.05;7.18;;;;;;;18.19;55.04;99050.44;10029060;28;66171;-77
2022/09/29 10:02:45;;;;;;;7.68;6.20;;;;;;;18.13;55.47;99051.75;9967272;28;66475;-77
2022/09/29 10:07:38;;;;;;;8.30;6.55;;;;;;;18.22;55.45;99054.47;10015917;28;66049;-82
2022/09/29 10:12:31;;;;;;;10.57;7.05;;;;;;;18.18;55.58;99056.25;10018085;28;66177;-77
2022/09/29 10:17:24;;;;;;;9.75;6.80;;;;;;;18.23;55.46;99059.59;10024614;28;65887;-79
2022/09/29 10:22:19;;;;;;;7.35;6.45;;;;;;;18.36;55.10;99060.50;10021854;28;66324;-79
2022/09/29 10:27:11;;;;;;;9.05;6.85;;;;;;;18.40;54.93;99060.66;10033732;28;66208;-76
2022/09/29 10:32:05;;;;;;;11.23;6.93;;;;;;;18.32;55.21;99065.03;10019423;28;65650;-79
2022/09/29 10:36:58;;;;;;;10.32;6.47;;;;;;;18.42;55.00;99072.09;10026099;28;66525;-79
2022/09/29 10:41:53;;;;;;;8.32;6.13;;;;;;;18.50;54.80;99065.75;10022339;28;65534;-77
2022/09/29 10:46:50;;;;;;;10.80;6.15;;;;;;;18.60;54.37;99065.41;10030317;28;65332;-78
2022/09/29 10:51:43;;;;;;;11.18;6.53;;;;;;;18.67;54.10;99073.94;10026317;28;66368;-82
2022/09/29 10:56:35;;;;;;;10.82;6.75;;;;;;;18.69;54.35;99074.38;10022364;28;65606;-76
2022/09/29 11:01:28;;;;;;;7.55;6.40;;;;;;;18.71;54.36;99066.63;10031750;28;66129;-79
2022/09/29 11:06:26;;;;;;;10.10;6.55;;;;;;;18.77;54.14;99070.78;10016258;28;66535;-78
2022/09/29 11:11:20;;;;;;;7.50;6.22;;;;;;;18.84;53.88;99068.31;10018220;28;66316;-79
2022/09/29 11:16:14;;;;;;;8.32;6.60;;;;;;;18.90;53.97;99066.16;10018572;28;65675;-82
2022/09/29 11:21:24;;;;;;;6.97;6.18;;;;;;;18.96;53.83;99067.59;10025060;28;66161;-82
2022/09/29 11:26:23;;;;;;;10.30;6.75;;;;;;;19.07;53.69;99066.03;10020598;28;65320;-77
2022/09/29 11:31:23;;;;;;;8.13;5.88;;;;;;;19.15;53.35;99062.41;10022014;28;65641;-76
2022/09/29 11:36:22;;;;;;;7.60;5.57;;;;;;;19.16;53.11;99076.97;10026447;28;65689;-77
2022/09/29 11:41:33;;;;;;;7.45;5.50;;;;;;;19.26;53.00;99062.81;10026382;28;66249;-78
2022/09/29 11:46:31;;;;;;;6.50;5.30;;;;;;;19.23;53.32;99063.47;10024194;28;65848;-69
2022/09/29 11:51:29;;;;;;;7.72;5.95;;;;;;;19.32;52.76;99067.78;10012409;28;66366;-70
2022/09/29 11:56:30;;;;;;;8.25;5.50;;;;;;;19.31;52.84;99060.66;10017126;28;66642;-70
2022/09/29 12:01:48;;;;;;;8.68;5.85;;;;;;;19.26;53.09;99057.31;10015466;28;66299;-72
2022/09/29 12:06:57;;;;;;;8.48;5.70;;;;;;;19.18;53.18;99059.00;10016773;28;66343;-69
2022/09/29 12:11:54;;;;;;;8.65;5.63;;;;;;;19.19;53.10;99051.56;10030874;28;66445;-70
2022/09/29 12:16:51;;;;;;;6.85;5.30;;;;;;;19.27;52.99;99048.72;10022107;28;66309;-69
2022/09/29 12:21:45;;;;;;;7.57;6.00;;;;;;;19.29;52.93;99054.69;10034358;28;66393;-69
2022/09/29 12:26:39;;;;;;;6.72;5.32;;;;;;;19.31;52.80;99048.88;9999972;28;66395;-68
2022/09/29 12:31:32;;;;;;;6.15;5.55;;;;;;;19.25;52.97;99056.53;10021837;28;66205;-70
2022/09/29 12:36:49;;;;;;;7.10;5.32;;;;;;;19.26;52.84;99054.56;10031125;28;66529;-68
2022/09/29 12:41:45;;;;;;;6.28;5.35;;;;;;;19.31;52.71;99057.91;10013097;28;66995;-68
2022/09/29 12:46:41;;;;;;;8.02;5.68;;;;;;;19.30;52.83;99053.56;10028668;28;65772;-68
2022/09/29 12:51:33;;;;;;;7.72;5.32;;;;;;;19.28;52.98;99055.03;10022086;28;66664;-67
2022/09/29 12:56:35;;;;;;;7.70;5.20;;;;;;;19.24;52.84;99052.16;10032482;28;66299;-68
2022/09/29 13:01:32;;;;;;;10.15;5.05;;;;;;;19.27;53.01;99053.41;10030089;28;66171;-68
2022/09/29 13:06:40;;;;;;;8.73;5.53;;;;;;;19.21;53.06;99052.81;10012162;28;66474;-67
2022/09/29 13:11:46;;;;;;;7.10;5.30;;;;;;;19.23;53.32;99055.25;10027999;28;65457;-73
2022/09/29 13:16:47;;;;;;;8.73;5.82;;;;;;;19.19;53.26;99057.06;10023873;28;66274;-67
2022/09/29 13:21:42;;;;;;;10.95;5.15;;;;;;;19.19;53.15;99054.31;10022372;28;65991;-68
2022/09/29 13:26:50;;;;;;;6.88;5.07;;;;;;;19.17;53.31;99067.59;10025221;28;66283;-67
2022/09/29 13:31:43;;;;;;;7.38;5.10;;;;;;;19.10;53.44;99062.63;10017608;28;66868;-67
2022/09/29 13:36:37;;;;;;;5.70;5.10;;;;;;;19.13;53.50;99058.38;10020031;28;66522;-69
2022/09/29 13:41:36;;;;;;;5.68;5.07;;;;;;;19.11;53.53;99056.00;10031472;28;64475;-68
2022/09/29 13:46:39;;;;;;;7.63;4.75;;;;;;;19.07;53.51;99057.00;10030971;28;65331;-69
2022/09/29 13:51:53;;;;;;;6.03;4.72;;;;;;;19.09;53.41;99072.00;10028023;28;65703;-69
2022/09/29 13:56:47;;;;;;;8.00;4.05;;;;;;;19.10;52.51;99067.31;10025418;28;64483;-68
2022/09/29 14:01:42;;;;;;;9.05;4.13;;;;;;;19.10;52.79;99075.56;10036888;28;65259;-66
2022/09/29 14:06:35;;;;;;;7.78;4.20;;;;;;;19.09;52.63;99068.44;10034478;28;66147;-67
2022/09/29 14:11:30;;;;;;;4.78;4.10;;;;;;;19.06;52.30;99072.66;10027143;28;66027;-66
2022/09/29 14:16:45;;;;;;;6.93;3.55;;;;;;;19.06;52.21;99083.66;10024974;28;66047;-67
2022/09/29 14:21:52;;;;;;;5.80;4.07;;;;;;;19.09;52.27;99084.94;10013879;28;66465;-69
2022/09/29 14:26:47;;;;;;;9.38;4.07;;;;;;;19.06;52.87;99089.16;10022056;28;66452;-68
2022/09/29 14:31:39;;;;;;;6.65;3.70;;;;;;;19.15;53.33;99089.09;10021461;28;64838;-80
2022/09/29 14:36:31;;;;;;;5.65;3.80;;;;;;;19.20;53.75;99097.13;10019578;28;66459;-79
2022/09/29 14:41:25;;;;;;;4.20;3.67;;;;;;;19.15;54.08;99097.31;10020259;28;66377;-78
2022/09/29 14:51:58;;;;;;;6.15;3.88;;;;;;;19.03;54.13;99103.56;10027384;28;67392;-81
2022/09/29 14:56:53;;;;;;;6.60;3.78;;;;;;;19.03;54.11;99109.06;10021116;28;66420;-68
2022/09/29 15:02:03;;;;;;;5.50;3.42;;;;;;;19.00;54.20;99115.22;10023795;28;66549;-67
2022/09/29 15:06:55;;;;;;;6.97;3.58;;;;;;;19.03;54.30;99119.25;10016592;28;66780;-79
2022/09/29 15:11:49;;;;;;;4.60;3.65;;;;;;;19.05;54.03;99122.44;10034429;28;66339;-67
2022/09/29 15:16:46;;;;;;;10.20;3.85;;;;;;;19.05;54.19;99126.00;10030280;28;66117;-75
2022/09/29 15:21:42;;;;;;;6.35;3.67;;;;;;;19.05;54.36;99127.94;10026153;28;66362;-76
2022/09/29 15:26:34;;;;;;;5.93;3.58;;;;;;;19.03;54.15;99122.00;10016967;28;65656;-75
2022/09/29 15:31:29;;;;;;;5.28;3.63;;;;;;;19.03;53.94;99120.06;10032034;28;66518;-68
2022/09/29 15:36:22;;;;;;;3.72;3.10;;;;;;;19.07;53.95;99125.66;10018487;28;65692;-68
2022/09/29 15:41:16;;;;;;;5.30;3.40;;;;;;;19.03;53.96;99128.28;10017502;28;66170;-68
2022/09/29 15:46:15;;;;;;;6.65;3.30;;;;;;;19.05;54.05;99125.19;10025332;28;65876;-75
2022/09/29 15:51:09;;;;;;;4.88;3.30;;;;;;;19.12;53.89;99133.72;10026622;28;65621;-75
2022/09/29 15:56:01;;;;;;;6.18;3.60;;;;;;;19.12;53.78;99136.47;10040100;28;66211;-77
2022/09/29 16:00:58;;;;;;;4.07;3.60;;;;;;;19.10;53.99;99139.56;10026375;28;66352;-78
2022/09/29 16:06:05;;;;;;;5.22;3.35;;;;;;;19.13;53.87;99147.09;10025474;28;65813;-84
2022/09/29 16:10:58;;;;;;;4.82;3.10;;;;;;;19.10;54.21;99158.78;10020828;28;65414;-82
2022/09/29 16:15:51;;;;;;;4.32;3.40;;;;;;;19.11;54.11;99159.59;10037932;28;65075;-81
2022/09/29 16:20:44;;;;;;;5.78;3.30;;;;;;;19.09;54.01;99173.66;10030778;28;66092;-82
2022/09/29 16:25:37;;;;;;;5.60;3.42;;;;;;;19.15;53.87;99185.25;10036379;28;66295;-86
2022/09/29 16:30:31;;;;;;;3.90;3.30;;;;;;;19.10;54.25;99190.94;10038832;28;65792;-81
2022/09/29 16:35:47;;;;;;;5.95;3.53;;;;;;;19.12;54.16;99207.91;10030881;28;65520;-77
2022/09/29 16:40:39;;;;;;;4.95;3.30;;;;;;;19.13;54.01;99201.25;10035067;28;65691;-76
2022/09/29 16:45:31;;;;;;;4.22;3.15;;;;;;;19.15;53.94;99202.53;10025908;28;66482;-75
2022/09/29 16:50:24;;;;;;;3.72;3.08;;;;;;;19.15;53.89;99212.72;10028802;28;65503;-78
2022/09/29 16:55:19;;;;;;;3.50;3.20;;;;;;;19.14;54.13;99219.34;10032173;28;65511;-79
2022/09/29 17:00:12;;;;;;;3.47;3.08;;;;;;;19.15;54.04;99224.53;10031810;28;64393;-74
2022/09/29 17:05:05;;;;;;;8.93;3.50;;;;;;;19.20;53.90;99220.75;10029422;28;65995;-69
2022/09/29 17:09:59;;;;;;;5.95;3.30;;;;;;;19.16;53.90;99230.81;10019389;28;66657;-69
2022/09/29 17:14:52;;;;;;;5.13;3.40;;;;;;;19.12;53.96;99227.13;10020570;28;66524;-69
2022/09/29 17:19:44;;;;;;;3.55;2.92;;;;;;;19.11;53.83;99233.78;10027144;28;65811;-69
2022/09/29 17:24:36;;;;;;;5.70;3.15;;;;;;;19.10;53.84;99232.97;10026917;28;65493;-70
2022/09/29 17:29:28;;;;;;;7.95;3.33;;;;;;;19.10;53.80;99240.41;10025057;28;66855;-71
2022/09/29 17:34:27;;;;;;;3.22;2.92;;;;;;;19.10;53.75;99249.44;10036748;28;64417;-69
2022/09/29 17:39:20;;;;;;;3.47;2.80;;;;;;;19.04;54.05;99258.22;10027457;28;66391;-70
2022/09/29 17:44:12;;;;;;;4.57;2.85;;;;;;;18.99;54.19;99259.19;10032594;28;66265;-68
2022/09/29 17:49:06;;;;;;;4.97;3.35;;;;;;;19.04;53.89;99266.44;10036630;28;66270;-70
2022/09/29 17:54:00;;;;;;;5.60;3.95;;;;;;;18.94;54.25;99278.59;10020990;28;65598;-70
2022/09/29 17:58:52;;;;;;;3.90;3.25;;;;;;;18.90;54.18;99285.88;10022932;28;66135;-71
2022/09/29 18:03:44;;;;;;;3.00;2.53;;;;;;;18.84;54.23;99285.25;10021075;28;66904;-71
2022/09/29 18:08:36;;;;;;;4.43;3.17;;;;;;;18.92;54.53;99289.91;10010581;28;66650;-82
2022/09/29 18:13:32;;;;;;;4.35;2.90;;;;;;;18.94;54.31;99293.16;10010142;28;66406;-80
2022/09/29 18:18:24;;;;;;;4.63;2.90;;;;;;;18.95;54.31;99296.69;10020519;28;65983;-82
2022/09/29 18:23:16;;;;;;;7.00;2.83;;;;;;;19.01;53.99;99289.88;10030771;28;66563;-82
2022/09/29 18:28:10;;;;;;;4.28;3.20;;;;;;;19.03;54.06;99301.34;10021481;28;65557;-81
2022/09/29 18:33:03;;;;;;;3.53;2.67;;;;;;;19.04;54.04;99299.41;10017919;28;65579;-80
2022/09/29 18:37:56;;;;;;;5.10;2.90;;;;;;;19.05;54.00;99301.00;10024421;28;66432;-81
2022/09/29 18:42:51;;;;;;;3.10;2.65;;;;;;;19.06;53.99;99305.38;10024866;28;66431;-82
2022/09/29 18:47:43;;;;;;;3.97;2.83;;;;;;;19.03;53.93;99317.03;10028902;28;66085;-83
2022/09/29 18:52:37;;;;;;;3.70;2.90;;;;;;;19.08;53.85;99316.84;10024050;28;64246;-82
2022/09/29 18:57:31;;;;;;;3.63;3.20;;;;;;;19.11;53.47;99327.19;10030695;28;65586;-77
